Time,TemperatureF,DewpointF,PressureIn,WindDirection,WindDirectionDegrees,WindSpeedMPH,WindSpeedGustMPH,Humidity,HourlyPrecipIn,Conditions,Clouds,dailyrainin,SoftwareType,DateUTC
2013-12-29 00:00:00,45.3,28.7,29.89,SW,234,3.0,5.0,52,0.00,,,0.00,VWS V14.01,2013-12-29 06:00:00,
2013-12-29 00:03:00,45.3,28.7,29.89,SW,234,3.0,4.0,52,0.00,,,0.00,VWS V14.01,2013-12-29 06:03:00,
2013-12-29 00:08:00,45.1,28.5,29.89,SW,236,2.0,5.0,52,0.00,,,0.00,VWS V14.01,2013-12-29 06:08:00,
2013-12-29 00:13:00,44.9,28.4,29.89,SW,221,2.0,5.0,52,0.00,,,0.00,VWS V14.01,2013-12-29 06:13:00,
2013-12-29 00:18:00,44.7,30.0,29.89,SW,223,0.0,5.0,56,0.00,,,0.00,VWS V14.01,2013-12-29 06:18:00,
2013-12-29 00:23:00,44.5,28.5,29.89,SW,223,1.0,5.0,53,0.00,,,0.00,VWS V14.01,2013-12-29 06:23:00,
2013-12-29 00:28:00,44.1,28.5,29.89,SW,223,3.0,5.0,54,0.00,,,0.00,VWS V14.01,2013-12-29 06:28:00,
2013-12-29 00:30:00,44.0,28.4,29.89,SW,227,1.0,5.0,54,0.00,,,0.00,VWS V14.01,2013-12-29 06:30:00,
2013-12-29 00:33:00,43.9,28.8,29.89,SW,232,4.0,4.0,55,0.00,,,0.00,VWS V14.01,2013-12-29 06:33:00,
2013-12-29 00:38:00,43.8,28.7,29.89,WSW,250,2.0,6.0,55,0.00,,,0.00,VWS V14.01,2013-12-29 06:38:00,
2013-12-29 00:43:00,43.7,28.6,29.89,WSW,252,3.0,6.0,55,0.00,,,0.00,VWS V14.01,2013-12-29 06:43:00,
2013-12-29 00:48:00,43.5,28.4,29.89,WSW,252,0.0,6.0,55,0.00,,,0.00,VWS V14.01,2013-12-29 06:48:00,
2013-12-29 00:53:00,43.3,28.2,29.89,WSW,253,4.0,6.0,55,0.00,,,0.00,VWS V14.01,2013-12-29 06:53:00,
2013-12-29 00:58:00,43.4,28.3,29.89,WSW,248,3.0,6.0,55,0.00,,,0.00,VWS V14.01,2013-12-29 06:58:00,
2013-12-29 01:00:00,43.4,28.3,29.89,WSW,244,4.0,6.0,55,0.00,,,0.00,VWS V14.01,2013-12-29 07:00:00,
2013-12-29 01:03:00,43.4,28.3,29.89,SW,234,1.0,5.0,55,0.00,,,0.00,VWS V14.01,2013-12-29 07:03:00,
2013-12-29 01:08:00,43.3,28.7,29.89,WSW,238,2.0,5.0,56,0.00,,,0.00,VWS V14.01,2013-12-29 07:08:00,
2013-12-29 01:13:00,43.1,28.5,29.89,WSW,239,3.0,5.0,56,0.00,,,0.00,VWS V14.01,2013-12-29 07:13:00,
2013-12-29 01:18:00,42.9,28.7,29.89,WSW,241,5.0,5.0,57,0.00,,,0.00,VWS V14.01,2013-12-29 07:18:00,
2013-12-29 01:23:00,42.8,28.6,29.89,WSW,237,2.0,6.0,57,0.00,,,0.00,VWS V14.01,2013-12-29 07:23:00,
2013-12-29 01:28:00,42.8,28.6,29.89,WSW,245,4.0,6.0,57,0.00,,,0.00,VWS V14.01,2013-12-29 07:28:00,
2013-12-29 01:30:00,42.8,28.6,29.89,WSW,245,3.0,6.0,57,0.00,,,0.00,VWS V14.01,2013-12-29 07:30:00,
2013-12-29 01:33:00,42.8,28.6,29.88,WSW,243,2.0,6.0,57,0.00,,,0.00,VWS V14.01,2013-12-29 07:33:00,
2013-12-29 01:38:00,42.7,28.5,29.88,SW,236,3.0,6.0,57,0.00,,,0.00,VWS V14.01,2013-12-29 07:38:00,
2013-12-29 01:43:00,42.8,28.6,29.88,WSW,252,3.0,6.0,57,0.00,,,0.00,VWS V14.01,2013-12-29 07:43:00,
2013-12-29 01:48:00,43.0,28.8,29.88,WSW,237,3.0,6.0,57,0.00,,,0.00,VWS V14.01,2013-12-29 07:48:00,
2013-12-29 01:53:00,43.3,29.1,29.88,WSW,254,2.0,7.0,57,0.00,,,0.00,VWS V14.01,2013-12-29 07:53:00,
2013-12-29 01:58:00,43.4,29.2,29.88,WSW,248,4.0,7.0,57,0.00,,,0.00,VWS V14.01,2013-12-29 07:58:00,
2013-12-29 02:00:00,43.4,29.2,29.88,WSW,253,3.0,7.0,57,0.00,,,0.00,VWS V14.01,2013-12-29 08:00:00,
2013-12-29 02:03:00,43.4,29.2,29.88,SW,236,3.0,4.0,57,0.00,,,0.00,VWS V14.01,2013-12-29 08:03:00,
2013-12-29 02:08:00,43.4,29.2,29.88,WSW,243,2.0,6.0,57,0.00,,,0.00,VWS V14.01,2013-12-29 08:08:00,
2013-12-29 02:13:00,43.5,29.3,29.88,WSW,248,5.0,6.0,57,0.00,,,0.00,VWS V14.01,2013-12-29 08:13:00,
2013-12-29 02:18:00,43.5,29.3,29.89,West,265,3.0,6.0,57,0.00,,,0.00,VWS V14.01,2013-12-29 08:18:00,
2013-12-29 02:23:00,43.7,29.0,29.89,WSW,240,4.0,6.0,56,0.00,,,0.00,VWS V14.01,2013-12-29 08:23:00,
2013-12-29 02:28:00,44.1,29.4,29.89,West,263,3.0,7.0,56,0.00,,,0.00,VWS V14.01,2013-12-29 08:28:00,
2013-12-29 02:30:00,44.2,29.5,29.89,WSW,257,4.0,7.0,56,0.00,,,0.00,VWS V14.01,2013-12-29 08:30:00,
2013-12-29 02:33:00,44.4,29.3,29.89,West,261,6.0,8.0,55,0.00,,,0.00,VWS V14.01,2013-12-29 08:33:00,
2013-12-29 02:38:00,44.5,29.4,29.89,West,273,5.0,8.0,55,0.00,,,0.00,VWS V14.01,2013-12-29 08:38:00,
2013-12-29 02:43:00,44.5,29.4,29.89,SW,217,6.0,12.0,55,0.00,,,0.00,VWS V14.01,2013-12-29 08:43:00,
2013-12-29 02:48:00,44.4,29.3,29.89,WSW,248,5.0,12.0,55,0.00,,,0.00,VWS V14.01,2013-12-29 08:48:00,
2013-12-29 02:53:00,44.3,29.6,29.89,WSW,241,3.0,12.0,56,0.00,,,0.00,VWS V14.01,2013-12-29 08:53:00,
2013-12-29 02:58:00,44.0,29.3,29.88,West,273,4.0,12.0,56,0.00,,,0.00,VWS V14.01,2013-12-29 08:58:00,
2013-12-29 03:00:00,44.0,29.3,29.88,WSW,243,6.0,12.0,56,0.00,,,0.00,VWS V14.01,2013-12-29 09:00:00,
2013-12-29 03:03:00,43.9,29.2,29.88,WSW,254,5.0,7.0,56,0.00,,,0.00,VWS V14.01,2013-12-29 09:03:00,
2013-12-29 03:08:00,43.9,29.7,29.88,WSW,250,4.0,8.0,57,0.00,,,0.00,VWS V14.01,2013-12-29 09:08:00,
2013-12-29 03:13:00,43.8,29.6,29.88,WSW,249,0.0,8.0,57,0.00,,,0.00,VWS V14.01,2013-12-29 09:13:00,
2013-12-29 03:18:00,43.6,29.4,29.88,West,265,3.0,8.0,57,0.00,,,0.00,VWS V14.01,2013-12-29 09:18:00,
2013-12-29 03:23:00,43.6,29.8,29.88,West,273,4.0,8.0,58,0.00,,,0.00,VWS V14.01,2013-12-29 09:23:00,
2013-12-29 03:28:00,43.6,29.8,29.88,SW,234,6.0,8.0,58,0.00,,,0.00,VWS V14.01,2013-12-29 09:28:00,
2013-12-29 03:30:00,43.7,29.9,29.88,West,281,5.0,10.0,58,0.00,,,0.00,VWS V14.01,2013-12-29 09:30:00,
2013-12-29 03:33:00,44.0,30.2,29.88,West,259,10.0,16.0,58,0.00,,,0.00,VWS V14.01,2013-12-29 09:33:00,
2013-12-29 03:38:00,44.4,30.1,29.88,West,279,9.0,16.0,57,0.00,,,0.00,VWS V14.01,2013-12-29 09:38:00,
2013-12-29 03:43:00,44.2,30.0,29.88,West,279,11.0,16.0,57,0.00,,,0.00,VWS V14.01,2013-12-29 09:43:00,
2013-12-29 03:48:00,43.8,30.0,29.88,WSW,248,5.0,16.0,58,0.00,,,0.00,VWS V14.01,2013-12-29 09:48:00,
2013-12-29 03:53:00,43.4,29.6,29.88,West,281,6.0,16.0,58,0.00,,,0.00,VWS V14.01,2013-12-29 09:53:00,
2013-12-29 03:58:00,43.0,29.7,29.88,West,270,6.0,16.0,59,0.00,,,0.00,VWS V14.01,2013-12-29 09:58:00,
2013-12-29 04:00:00,42.9,29.6,29.88,WNW,284,4.0,16.0,59,0.00,,,0.00,VWS V14.01,2013-12-29 10:00:00,
2013-12-29 04:03:00,42.8,29.9,29.88,WSW,257,7.0,7.0,60,0.00,,,0.00,VWS V14.01,2013-12-29 10:03:00,
2013-12-29 04:08:00,42.5,29.6,29.88,West,260,4.0,8.0,60,0.00,,,0.00,VWS V14.01,2013-12-29 10:08:00,
2013-12-29 04:13:00,42.2,29.7,29.88,WNW,293,5.0,9.0,61,0.00,,,0.00,VWS V14.01,2013-12-29 10:13:00,
2013-12-29 04:19:00,41.9,29.9,29.88,WSW,243,4.0,9.0,62,0.00,,,0.00,VWS V14.01,2013-12-29 10:19:00,
2013-12-29 04:24:00,41.6,30.0,29.88,WSW,254,4.0,12.0,63,0.00,,,0.00,VWS V14.01,2013-12-29 10:24:00,
2013-12-29 04:29:00,41.3,30.1,29.88,North,360,0.0,12.0,64,0.00,,,0.00,VWS V14.01,2013-12-29 10:29:00,
2013-12-29 04:30:00,41.2,30.0,29.88,WNW,284,8.0,12.0,64,0.00,,,0.00,VWS V14.01,2013-12-29 10:30:00,
2013-12-29 04:34:00,41.0,31.3,29.88,WNW,302,0.0,11.0,68,0.00,,,0.00,VWS V14.01,2013-12-29 10:34:00,
2013-12-29 04:39:00,40.6,29.8,29.88,WSW,258,4.0,11.0,65,0.00,,,0.00,VWS V14.01,2013-12-29 10:39:00,
2013-12-29 04:44:00,40.2,29.8,29.89,WNW,294,5.0,11.0,66,0.00,,,0.00,VWS V14.01,2013-12-29 10:44:00,
2013-12-29 04:49:00,39.6,29.9,29.89,WNW,289,7.0,16.0,68,0.00,,,0.00,VWS V14.01,2013-12-29 10:49:00,
2013-12-29 04:54:00,38.7,30.1,29.90,NW,308,7.0,16.0,71,0.00,,,0.00,VWS V14.01,2013-12-29 10:54:00,
2013-12-29 04:59:00,38.0,30.5,29.90,NE,55,2.0,23.0,74,0.00,,,0.00,VWS V14.01,2013-12-29 10:59:00,
2013-12-29 05:00:00,37.9,30.4,29.90,NNE,15,4.0,23.0,74,0.00,,,0.00,VWS V14.01,2013-12-29 11:00:00,
2013-12-29 05:04:00,37.5,30.3,29.90,NE,44,2.0,13.0,75,0.00,,,0.00,VWS V14.01,2013-12-29 11:04:00,
2013-12-29 05:09:00,37.1,30.2,29.90,West,276,6.0,15.0,76,0.00,,,0.00,VWS V14.01,2013-12-29 11:09:00,
2013-12-29 05:14:00,36.7,30.2,29.91,West,277,8.0,16.0,77,0.00,,,0.00,VWS V14.01,2013-12-29 11:14:00,
2013-12-29 05:19:00,36.0,29.8,29.92,WNW,298,11.0,18.0,78,0.00,,,0.00,VWS V14.01,2013-12-29 11:19:00,
2013-12-29 05:24:00,35.3,29.5,29.92,WNW,295,5.0,18.0,79,0.00,,,0.00,VWS V14.01,2013-12-29 11:24:00,
2013-12-29 05:29:00,34.9,29.1,29.92,SW,233,2.0,18.0,79,0.00,,,0.00,VWS V14.01,2013-12-29 11:29:00,
2013-12-29 05:30:00,34.8,29.0,29.92,WNW,294,7.0,18.0,79,0.00,,,0.00,VWS V14.01,2013-12-29 11:30:00,
2013-12-29 05:34:00,34.6,29.1,29.92,West,278,7.0,14.0,80,0.00,,,0.00,VWS V14.01,2013-12-29 11:34:00,
2013-12-29 05:39:00,34.4,28.6,29.93,WNW,291,6.0,14.0,79,0.00,,,0.00,VWS V14.01,2013-12-29 11:39:00,
2013-12-29 05:44:00,34.2,28.4,29.93,West,277,7.0,14.0,79,0.00,,,0.00,VWS V14.01,2013-12-29 11:44:00,
2013-12-29 05:49:00,34.0,27.9,29.93,West,275,4.0,15.0,78,0.00,,,0.00,VWS V14.01,2013-12-29 11:49:00,
2013-12-29 05:54:00,33.9,27.8,29.93,WSW,242,5.0,15.0,78,0.00,,,0.00,VWS V14.01,2013-12-29 11:54:00,
2013-12-29 05:59:00,33.7,27.6,29.94,WNW,300,7.0,19.0,78,0.00,,,0.00,VWS V14.01,2013-12-29 11:59:00,
2013-12-29 06:00:00,33.6,27.5,29.94,WNW,287,4.0,19.0,78,0.00,,,0.00,VWS V14.01,2013-12-29 12:00:00,
2013-12-29 06:04:00,33.4,27.0,29.94,WNW,296,2.0,11.0,77,0.00,,,0.00,VWS V14.01,2013-12-29 12:04:00,
2013-12-29 06:09:00,33.2,26.8,29.95,West,275,5.0,11.0,77,0.00,,,0.00,VWS V14.01,2013-12-29 12:09:00,
2013-12-29 06:14:00,33.0,26.9,29.95,NW,314,8.0,18.0,78,0.00,,,0.00,VWS V14.01,2013-12-29 12:14:00,
2013-12-29 06:19:00,32.9,26.5,29.96,West,266,4.0,18.0,77,0.00,,,0.00,VWS V14.01,2013-12-29 12:19:00,
2013-12-29 06:24:00,32.7,26.6,29.96,NW,313,7.0,18.0,78,0.00,,,0.00,VWS V14.01,2013-12-29 12:24:00,
2013-12-29 06:29:00,32.6,26.5,29.97,WNW,283,5.0,18.0,78,0.00,,,0.00,VWS V14.01,2013-12-29 12:29:00,
2013-12-29 06:30:00,32.5,26.4,29.97,WNW,303,5.0,18.0,78,0.00,,,0.00,VWS V14.01,2013-12-29 12:30:00,
2013-12-29 06:34:00,32.4,26.6,29.97,NW,305,2.0,12.0,79,0.00,,,0.00,VWS V14.01,2013-12-29 12:34:00,
2013-12-29 06:39:00,32.3,26.8,29.97,WNW,298,6.0,12.0,80,0.00,,,0.00,VWS V14.01,2013-12-29 12:39:00,
2013-12-29 06:44:00,32.1,26.6,29.98,WNW,288,2.0,12.0,80,0.00,,,0.00,VWS V14.01,2013-12-29 12:44:00,
2013-12-29 06:49:00,31.9,26.7,29.98,NW,307,6.0,12.0,81,0.00,,,0.00,VWS V14.01,2013-12-29 12:49:00,
2013-12-29 06:54:00,31.7,26.5,29.99,WNW,289,4.0,12.0,81,0.00,,,0.00,VWS V14.01,2013-12-29 12:54:00,
2013-12-29 06:59:00,31.5,26.4,29.99,WNW,298,1.0,12.0,81,0.00,,,0.00,VWS V14.01,2013-12-29 12:59:00,
2013-12-29 07:00:00,31.5,26.4,29.99,NW,317,4.0,12.0,81,0.00,,,0.00,VWS V14.01,2013-12-29 13:00:00,
2013-12-29 07:04:00,31.5,26.4,29.99,WNW,296,6.0,12.0,81,0.00,,,0.00,VWS V14.01,2013-12-29 13:04:00,
2013-12-29 07:09:00,31.4,26.2,29.99,West,281,11.0,12.0,81,0.00,,,0.00,VWS V14.01,2013-12-29 13:09:00,
2013-12-29 07:14:00,31.2,25.8,30.00,WNW,297,16.0,16.0,80,0.00,,,0.00,VWS V14.01,2013-12-29 13:14:00,
2013-12-29 07:19:00,30.7,25.3,30.00,WNW,293,7.0,16.0,80,0.00,,,0.00,VWS V14.01,2013-12-29 13:19:00,
2013-12-29 07:24:00,30.2,24.5,30.01,NNE,26,7.0,16.0,79,0.00,,,0.00,VWS V14.01,2013-12-29 13:24:00,
2013-12-29 07:29:00,29.7,23.7,30.02,West,260,2.0,16.0,78,0.00,,,0.00,VWS V14.01,2013-12-29 13:29:00,
2013-12-29 07:30:00,29.6,23.6,30.02,NNW,336,2.0,16.0,78,0.00,,,0.00,VWS V14.01,2013-12-29 13:30:00,
2013-12-29 07:34:00,29.2,23.2,30.02,NW,319,0.0,11.0,78,0.00,,,0.00,VWS V14.01,2013-12-29 13:34:00,
2013-12-29 07:39:00,28.8,22.8,30.03,North,355,7.0,16.0,78,0.00,,,0.00,VWS V14.01,2013-12-29 13:39:00,
2013-12-29 07:44:00,28.5,22.8,30.03,WNW,298,6.0,16.0,79,0.00,,,0.00,VWS V14.01,2013-12-29 13:44:00,
2013-12-29 07:49:00,28.3,22.6,30.03,West,278,2.0,16.0,79,0.00,,,0.00,VWS V14.01,2013-12-29 13:49:00,
2013-12-29 07:54:00,28.1,22.7,30.04,WNW,298,2.0,16.0,80,0.00,,,0.00,VWS V14.01,2013-12-29 13:54:00,
2013-12-29 07:59:00,28.0,22.6,30.03,West,273,4.0,16.0,80,0.00,,,0.00,VWS V14.01,2013-12-29 13:59:00,
2013-12-29 08:00:00,28.0,22.6,30.03,NW,322,2.0,16.0,80,0.00,,,0.00,VWS V14.01,2013-12-29 14:00:00,
2013-12-29 08:04:00,27.9,22.5,30.04,West,281,5.0,12.0,80,0.00,,,0.00,VWS V14.01,2013-12-29 14:04:00,
2013-12-29 08:09:00,27.7,22.6,30.04,WNW,297,8.0,14.0,81,0.00,,,0.00,VWS V14.01,2013-12-29 14:09:00,
2013-12-29 08:14:00,27.7,22.9,30.05,NW,305,13.0,14.0,82,0.00,,,0.00,VWS V14.01,2013-12-29 14:14:00,
2013-12-29 08:19:00,27.6,23.1,30.05,NW,319,5.0,14.0,83,0.00,,,0.00,VWS V14.01,2013-12-29 14:19:00,
2013-12-29 08:24:00,27.4,22.6,30.05,North,360,1.0,14.0,82,0.00,,,0.00,VWS V14.01,2013-12-29 14:24:00,
2013-12-29 08:29:00,27.2,22.1,30.05,WNW,292,5.0,15.0,81,0.00,,,0.00,VWS V14.01,2013-12-29 14:29:00,
2013-12-29 08:30:00,27.2,22.1,30.05,North,350,1.0,15.0,81,0.00,,,0.00,VWS V14.01,2013-12-29 14:30:00,
2013-12-29 08:34:00,27.0,22.0,30.06,West,274,2.0,8.0,81,0.00,,,0.00,VWS V14.01,2013-12-29 14:34:00,
2013-12-29 08:39:00,27.0,22.2,30.06,West,275,1.0,11.0,82,0.00,,,0.00,VWS V14.01,2013-12-29 14:39:00,
2013-12-29 08:44:00,27.0,22.2,30.07,WNW,288,0.0,11.0,82,0.00,,,0.00,VWS V14.01,2013-12-29 14:44:00,
2013-12-29 08:49:00,27.0,22.0,30.07,NE,49,2.0,11.0,81,0.00,,,0.00,VWS V14.01,2013-12-29 14:49:00,
2013-12-29 08:54:00,26.9,21.6,30.08,NNW,331,9.0,21.0,80,0.00,,,0.00,VWS V14.01,2013-12-29 14:54:00,
2013-12-29 08:59:00,26.7,21.1,30.08,North,5,4.0,21.0,79,0.00,,,0.00,VWS V14.01,2013-12-29 14:59:00,
2013-12-29 09:00:00,26.7,21.1,30.08,WNW,285,9.0,21.0,79,0.00,,,0.00,VWS V14.01,2013-12-29 15:00:00,
2013-12-29 09:04:00,26.6,21.0,30.08,NE,38,5.0,12.0,79,0.00,,,0.00,VWS V14.01,2013-12-29 15:04:00,
2013-12-29 09:09:00,26.7,21.1,30.08,WNW,287,1.0,12.0,79,0.00,,,0.00,VWS V14.01,2013-12-29 15:09:00,
2013-12-29 09:14:00,26.7,21.1,30.08,West,271,0.0,12.0,79,0.00,,,0.00,VWS V14.01,2013-12-29 15:14:00,
2013-12-29 09:19:00,26.6,20.7,30.09,WNW,298,2.0,12.0,78,0.00,,,0.00,VWS V14.01,2013-12-29 15:19:00,
2013-12-29 09:24:00,26.4,20.5,30.09,WSW,250,4.0,12.0,78,0.00,,,0.00,VWS V14.01,2013-12-29 15:24:00,
2013-12-29 09:29:00,26.3,20.4,30.09,NW,315,4.0,15.0,78,0.00,,,0.00,VWS V14.01,2013-12-29 15:29:00,
2013-12-29 09:30:00,26.2,20.3,30.09,WNW,289,4.0,15.0,78,0.00,,,0.00,VWS V14.01,2013-12-29 15:30:00,
2013-12-29 09:34:00,26.1,19.9,30.10,WNW,300,7.0,10.0,77,0.00,,,0.00,VWS V14.01,2013-12-29 15:34:00,
2013-12-29 09:39:00,25.9,19.4,30.10,NW,317,8.0,11.0,76,0.00,,,0.00,VWS V14.01,2013-12-29 15:39:00,
2013-12-29 09:44:00,25.7,19.5,30.10,WNW,297,0.0,11.0,77,0.00,,,0.00,VWS V14.01,2013-12-29 15:44:00,
2013-12-29 09:49:00,25.6,19.4,30.11,WNW,289,4.0,11.0,77,0.00,,,0.00,VWS V14.01,2013-12-29 15:49:00,
2013-12-29 09:54:00,25.6,19.7,30.11,West,273,2.0,11.0,78,0.00,,,0.00,VWS V14.01,2013-12-29 15:54:00,
2013-12-29 09:59:00,25.7,19.8,30.11,West,276,4.0,11.0,78,0.00,,,0.00,VWS V14.01,2013-12-29 15:59:00,
2013-12-29 10:00:00,25.7,19.8,30.11,WNW,296,2.0,11.0,78,0.00,,,0.00,VWS V14.01,2013-12-29 16:00:00,
2013-12-29 10:04:00,25.7,19.8,30.11,WNW,296,4.0,11.0,78,0.00,,,0.00,VWS V14.01,2013-12-29 16:04:00,
2013-12-29 10:09:00,25.5,19.9,30.11,West,267,6.0,11.0,79,0.00,,,0.00,VWS V14.01,2013-12-29 16:09:00,
2013-12-29 10:14:00,25.4,19.8,30.11,NE,46,0.0,14.0,79,0.00,,,0.00,VWS V14.01,2013-12-29 16:14:00,
2013-12-29 10:19:00,25.2,19.3,30.12,WNW,283,1.0,18.0,78,0.00,,,0.00,VWS V14.01,2013-12-29 16:19:00,
2013-12-29 10:25:00,25.1,19.2,30.12,NNE,17,3.0,18.0,78,0.00,,,0.00,VWS V14.01,2013-12-29 16:25:00,
2013-12-29 10:30:00,25.0,18.5,30.13,WNW,286,2.0,18.0,76,0.00,,,0.00,VWS V14.01,2013-12-29 16:30:00,
2013-12-29 10:35:00,24.9,18.4,30.13,WSW,250,13.0,13.0,76,0.00,,,0.00,VWS V14.01,2013-12-29 16:35:00,
2013-12-29 10:40:00,24.7,17.9,30.13,West,277,12.0,14.0,75,0.00,,,0.00,VWS V14.01,2013-12-29 16:40:00,
2013-12-29 10:45:00,24.6,17.8,30.14,WNW,288,5.0,18.0,75,0.00,,,0.00,VWS V14.01,2013-12-29 16:45:00,
2013-12-29 10:50:00,24.5,17.4,30.14,SSW,206,0.0,18.0,74,0.00,,,0.00,VWS V14.01,2013-12-29 16:50:00,
2013-12-29 10:55:00,24.5,17.4,30.13,West,280,1.0,18.0,74,0.00,,,0.00,VWS V14.01,2013-12-29 16:55:00,
2013-12-29 11:00:00,24.5,17.4,30.14,NW,306,7.0,18.0,74,0.00,,,0.00,VWS V14.01,2013-12-29 17:00:00,
2013-12-29 11:05:00,24.3,17.2,30.14,West,271,4.0,15.0,74,0.00,,,0.00,VWS V14.01,2013-12-29 17:05:00,
2013-12-29 11:10:00,24.2,17.4,30.14,WSW,237,11.0,15.0,75,0.00,,,0.00,VWS V14.01,2013-12-29 17:10:00,
2013-12-29 11:15:00,24.1,17.0,30.14,WNW,284,8.0,15.0,74,0.00,,,0.00,VWS V14.01,2013-12-29 17:15:00,
2013-12-29 11:20:00,24.0,16.9,30.14,NW,310,4.0,18.0,74,0.00,,,0.00,VWS V14.01,2013-12-29 17:20:00,
2013-12-29 11:25:00,23.9,16.5,30.14,NW,312,12.0,18.0,73,0.00,,,0.00,VWS V14.01,2013-12-29 17:25:00,
2013-12-29 11:30:00,23.8,16.4,30.14,WSW,238,13.0,18.0,73,0.00,,,0.00,VWS V14.01,2013-12-29 17:30:00,
2013-12-29 11:35:00,23.5,16.5,30.13,NNW,338,4.0,18.0,74,0.00,,,0.00,VWS V14.01,2013-12-29 17:35:00,
2013-12-29 11:40:00,23.5,16.5,30.14,NW,319,4.0,18.0,74,0.00,,,0.00,VWS V14.01,2013-12-29 17:40:00,
2013-12-29 11:45:00,23.5,16.1,30.13,WNW,283,1.0,18.0,73,0.00,,,0.00,VWS V14.01,2013-12-29 17:45:00,
2013-12-29 11:50:00,23.5,15.8,30.13,WNW,289,2.0,18.0,72,0.00,,,0.00,VWS V14.01,2013-12-29 17:50:00,
2013-12-29 11:55:00,23.4,15.7,30.13,NW,316,6.0,18.0,72,0.00,,,0.00,VWS V14.01,2013-12-29 17:55:00,
2013-12-29 12:00:00,23.3,15.9,30.13,SW,229,7.0,18.0,73,0.00,,,0.00,VWS V14.01,2013-12-29 18:00:00,
2013-12-29 12:05:00,23.2,15.5,30.13,WNW,303,2.0,12.0,72,0.00,,,0.00,VWS V14.01,2013-12-29 18:05:00,
2013-12-29 12:10:00,23.1,15.8,30.13,West,275,4.0,12.0,73,0.00,,,0.00,VWS V14.01,2013-12-29 18:10:00,
2013-12-29 12:15:00,23.1,15.4,30.14,WSW,254,8.0,13.0,72,0.00,,,0.00,VWS V14.01,2013-12-29 18:15:00,
2013-12-29 12:20:00,22.9,14.9,30.14,NW,309,9.0,18.0,71,0.00,,,0.00,VWS V14.01,2013-12-29 18:20:00,
2013-12-29 12:25:00,22.9,14.9,30.14,NNE,18,0.0,18.0,71,0.00,,,0.00,VWS V14.01,2013-12-29 18:25:00,
2013-12-29 12:30:00,22.9,14.9,30.14,SW,227,5.0,18.0,71,0.00,,,0.00,VWS V14.01,2013-12-29 18:30:00,
2013-12-29 12:35:00,22.8,14.5,30.15,West,275,6.0,13.0,70,0.00,,,0.00,VWS V14.01,2013-12-29 18:35:00,
2013-12-29 12:40:00,22.7,14.7,30.15,WNW,284,6.0,13.0,71,0.00,,,0.00,VWS V14.01,2013-12-29 18:40:00,
2013-12-29 12:45:00,22.6,14.3,30.15,WNW,292,6.0,22.0,70,0.00,,,0.00,VWS V14.01,2013-12-29 18:45:00,
2013-12-29 12:50:00,22.3,14.0,30.15,WNW,292,4.0,22.0,70,0.00,,,0.00,VWS V14.01,2013-12-29 18:50:00,
2013-12-29 12:55:00,22.3,13.7,30.15,West,264,3.0,22.0,69,0.00,,,0.00,VWS V14.01,2013-12-29 18:55:00,
2013-12-29 13:00:00,22.2,13.6,30.15,WNW,293,0.0,22.0,69,0.00,,,0.00,VWS V14.01,2013-12-29 19:00:00,
2013-12-29 13:05:00,22.1,13.5,30.16,West,281,6.0,7.0,69,0.00,,,0.00,VWS V14.01,2013-12-29 19:05:00,
2013-12-29 13:10:00,22.1,13.5,30.16,NE,37,2.0,9.0,69,0.00,,,0.00,VWS V14.01,2013-12-29 19:10:00,
2013-12-29 13:15:00,22.1,13.5,30.16,WNW,290,5.0,9.0,69,0.00,,,0.00,VWS V14.01,2013-12-29 19:15:00,
2013-12-29 13:20:00,22.1,13.2,30.16,NNE,22,4.0,9.0,68,0.00,,,0.00,VWS V14.01,2013-12-29 19:20:00,
2013-12-29 13:25:00,22.1,13.5,30.15,SW,232,2.0,14.0,69,0.00,,,0.00,VWS V14.01,2013-12-29 19:25:00,
2013-12-29 13:30:00,22.1,13.5,30.16,WNW,288,6.0,7.0,69,0.00,,,0.00,VWS V14.01,2013-12-29 19:30:00,
2013-12-29 13:35:00,22.1,13.2,30.16,WNW,296,15.0,19.0,68,0.00,,,0.00,VWS V14.01,2013-12-29 19:35:00,
2013-12-29 13:40:00,22.0,13.1,30.16,WNW,299,12.0,19.0,68,0.00,,,0.00,VWS V14.01,2013-12-29 19:40:00,
2013-12-29 13:45:00,22.0,13.1,30.16,ENE,65,0.0,19.0,68,0.00,,,0.00,VWS V14.01,2013-12-29 19:45:00,
2013-12-29 13:50:00,22.1,13.5,30.16,NW,326,0.0,19.0,69,0.00,,,0.00,VWS V14.01,2013-12-29 19:50:00,
2013-12-29 13:55:00,22.2,13.6,30.16,WNW,297,0.0,19.0,69,0.00,,,0.00,VWS V14.01,2013-12-29 19:55:00,
2013-12-29 14:00:00,22.1,13.2,30.17,West,262,10.0,12.0,68,0.00,,,0.00,VWS V14.01,2013-12-29 20:00:00,
2013-12-29 14:05:00,22.0,13.4,30.17,WNW,285,5.0,14.0,69,0.00,,,0.00,VWS V14.01,2013-12-29 20:05:00,
2013-12-29 14:10:00,21.7,13.1,30.17,WSW,250,11.0,18.0,69,0.00,,,0.00,VWS V14.01,2013-12-29 20:10:00,
2013-12-29 14:15:00,21.6,13.0,30.17,WSW,253,12.0,18.0,69,0.00,,,0.00,VWS V14.01,2013-12-29 20:15:00,
2013-12-29 14:20:00,21.5,12.9,30.17,WNW,297,0.0,18.0,69,0.00,,,0.00,VWS V14.01,2013-12-29 20:20:00,
2013-12-29 14:25:00,21.7,13.1,30.17,WNW,288,6.0,18.0,69,0.00,,,0.00,VWS V14.01,2013-12-29 20:25:00,
2013-12-29 14:30:00,21.6,13.0,30.17,ESE,107,4.0,4.0,69,0.00,,,0.00,VWS V14.01,2013-12-29 20:30:00,
2013-12-29 14:35:00,21.6,13.0,30.17,NW,315,2.0,4.0,69,0.00,,,0.00,VWS V14.01,2013-12-29 20:35:00,
2013-12-29 14:40:00,21.7,13.4,30.18,WNW,293,6.0,13.0,70,0.00,,,0.00,VWS V14.01,2013-12-29 20:40:00,
2013-12-29 14:45:00,21.6,13.0,30.18,WNW,292,4.0,13.0,69,0.00,,,0.00,VWS V14.01,2013-12-29 20:45:00,
2013-12-29 14:50:00,21.5,12.9,30.19,NW,306,2.0,13.0,69,0.00,,,0.00,VWS V14.01,2013-12-29 20:50:00,
2013-12-29 14:55:00,21.4,12.8,30.19,WNW,290,5.0,13.0,69,0.00,,,0.00,VWS V14.01,2013-12-29 20:55:00,
2013-12-29 15:00:00,21.3,12.7,30.19,WNW,282,5.0,5.0,69,0.00,,,0.00,VWS V14.01,2013-12-29 21:00:00,
2013-12-29 15:05:00,21.2,12.6,30.19,NW,306,7.0,11.0,69,0.00,,,0.00,VWS V14.01,2013-12-29 21:05:00,
2013-12-29 15:10:00,21.2,13.0,30.19,WNW,296,8.0,15.0,70,0.00,,,0.00,VWS V14.01,2013-12-29 21:10:00,
2013-12-29 15:15:00,21.2,13.0,30.20,WSW,257,5.0,15.0,70,0.00,,,0.00,VWS V14.01,2013-12-29 21:15:00,
2013-12-29 15:20:00,21.1,12.9,30.20,WNW,293,4.0,15.0,70,0.00,,,0.00,VWS V14.01,2013-12-29 21:20:00,
2013-12-29 15:25:00,21.0,12.8,30.20,West,271,1.0,15.0,70,0.00,,,0.00,VWS V14.01,2013-12-29 21:25:00,
2013-12-29 15:30:00,21.0,12.8,30.20,WSW,257,2.0,5.0,70,0.00,,,0.00,VWS V14.01,2013-12-29 21:30:00,
2013-12-29 15:35:00,20.9,12.7,30.20,NW,305,1.0,8.0,70,0.00,,,0.00,VWS V14.01,2013-12-29 21:35:00,
2013-12-29 15:40:00,20.8,12.6,30.21,North,5,4.0,13.0,70,0.00,,,0.00,VWS V14.01,2013-12-29 21:40:00,
2013-12-29 15:45:00,20.7,12.5,30.21,WNW,296,2.0,13.0,70,0.00,,,0.00,VWS V14.01,2013-12-29 21:45:00,
2013-12-29 15:50:00,20.8,12.6,30.22,West,274,5.0,13.0,70,0.00,,,0.00,VWS V14.01,2013-12-29 21:50:00,
2013-12-29 15:56:00,20.8,12.6,30.22,West,276,4.0,13.0,70,0.00,,,0.00,VWS V14.01,2013-12-29 21:56:00,
2013-12-29 16:00:00,20.8,12.6,30.22,WNW,287,5.0,13.0,70,0.00,,,0.00,VWS V14.01,2013-12-29 22:00:00,
2013-12-29 16:01:00,20.8,12.6,30.23,WNW,286,1.0,5.0,70,0.00,,,0.00,VWS V14.01,2013-12-29 22:01:00,
2013-12-29 16:06:00,20.8,12.6,30.23,NW,309,4.0,9.0,70,0.00,,,0.00,VWS V14.01,2013-12-29 22:06:00,
2013-12-29 16:11:00,20.8,12.6,30.23,NW,318,4.0,9.0,70,0.00,,,0.00,VWS V14.01,2013-12-29 22:11:00,
2013-12-29 16:16:00,20.7,12.5,30.23,NW,304,7.0,9.0,70,0.00,,,0.00,VWS V14.01,2013-12-29 22:16:00,
2013-12-29 16:21:00,20.6,12.4,30.23,WNW,290,2.0,9.0,70,0.00,,,0.00,VWS V14.01,2013-12-29 22:21:00,
2013-12-29 16:26:00,20.4,12.5,30.23,WNW,299,0.0,9.0,71,0.00,,,0.00,VWS V14.01,2013-12-29 22:26:00,
2013-12-29 16:30:00,20.4,12.5,30.23,NW,321,2.0,9.0,71,0.00,,,0.00,VWS V14.01,2013-12-29 22:30:00,
2013-12-29 16:31:00,20.3,12.4,30.23,NW,321,0.0,4.0,71,0.00,,,0.00,VWS V14.01,2013-12-29 22:31:00,
2013-12-29 16:36:00,20.3,12.4,30.24,WNW,290,1.0,6.0,71,0.00,,,0.00,VWS V14.01,2013-12-29 22:36:00,
2013-12-29 16:41:00,20.2,12.3,30.24,WNW,286,5.0,6.0,71,0.00,,,0.00,VWS V14.01,2013-12-29 22:41:00,
2013-12-29 16:46:00,20.2,12.3,30.24,West,278,4.0,6.0,71,0.00,,,0.00,VWS V14.01,2013-12-29 22:46:00,
2013-12-29 16:51:00,20.2,12.6,30.24,WNW,292,0.0,6.0,72,0.00,,,0.00,VWS V14.01,2013-12-29 22:51:00,
2013-12-29 16:56:00,20.2,12.3,30.25,WNW,287,4.0,6.0,71,0.00,,,0.00,VWS V14.01,2013-12-29 22:56:00,
2013-12-29 17:00:00,20.2,12.6,30.25,WNW,297,0.0,6.0,72,0.00,,,0.00,VWS V14.01,2013-12-29 23:00:00,
2013-12-29 17:01:00,20.2,12.6,30.25,WNW,297,0.0,0.0,72,0.00,,,0.00,VWS V14.01,2013-12-29 23:01:00,
2013-12-29 17:06:00,20.3,12.7,30.25,NW,313,6.0,6.0,72,0.00,,,0.00,VWS V14.01,2013-12-29 23:06:00,
2013-12-29 17:11:00,20.4,12.2,30.25,WNW,299,7.0,11.0,70,0.00,,,0.00,VWS V14.01,2013-12-29 23:11:00,
2013-12-29 17:16:00,20.5,12.3,30.26,NW,324,7.0,11.0,70,0.00,,,0.00,VWS V14.01,2013-12-29 23:16:00,
2013-12-29 17:21:00,20.5,12.0,30.26,NW,319,2.0,11.0,69,0.00,,,0.00,VWS V14.01,2013-12-29 23:21:00,
2013-12-29 17:26:00,20.6,12.1,30.26,WSW,254,1.0,11.0,69,0.00,,,0.00,VWS V14.01,2013-12-29 23:26:00,
2013-12-29 17:30:00,20.5,12.0,30.26,West,281,0.0,11.0,69,0.00,,,0.00,VWS V14.01,2013-12-29 23:30:00,
2013-12-29 17:31:00,20.5,12.0,30.26,West,281,6.0,6.0,69,0.00,,,0.00,VWS V14.01,2013-12-29 23:31:00,
2013-12-29 17:36:00,20.5,12.0,30.26,WNW,298,2.0,6.0,69,0.00,,,0.00,VWS V14.01,2013-12-29 23:36:00,
2013-12-29 17:41:00,20.4,11.5,30.27,West,269,5.0,8.0,68,0.00,,,0.00,VWS V14.01,2013-12-29 23:41:00,
2013-12-29 17:46:00,20.3,11.4,30.26,West,277,0.0,8.0,68,0.00,,,0.00,VWS V14.01,2013-12-29 23:46:00,
2013-12-29 17:51:00,20.2,11.4,30.27,North,355,4.0,12.0,68,0.00,,,0.00,VWS V14.01,2013-12-29 23:51:00,
2013-12-29 17:56:00,20.0,11.1,30.28,NW,321,4.0,12.0,68,0.00,,,0.00,VWS V14.01,2013-12-29 23:56:00,
2013-12-29 18:00:00,19.9,11.1,30.27,WNW,291,4.0,12.0,68,0.00,,,0.00,VWS V14.01,2013-12-30 00:00:00,
2013-12-29 18:01:00,19.9,11.1,30.27,WNW,292,0.0,4.0,68,0.00,,,0.00,VWS V14.01,2013-12-30 00:01:00,
2013-12-29 18:06:00,19.7,10.9,30.27,WNW,288,5.0,8.0,68,0.00,,,0.00,VWS V14.01,2013-12-30 00:06:00,
2013-12-29 18:11:00,19.4,10.9,30.28,West,277,4.0,8.0,69,0.00,,,0.00,VWS V14.01,2013-12-30 00:11:00,
2013-12-29 18:16:00,19.2,11.0,30.28,NW,306,0.0,8.0,70,0.00,,,0.00,VWS V14.01,2013-12-30 00:16:00,
2013-12-29 18:21:00,19.0,10.8,30.28,NW,313,0.0,8.0,70,0.00,,,0.00,VWS V14.01,2013-12-30 00:21:00,
2013-12-29 18:26:00,18.9,10.4,30.28,West,267,3.0,11.0,69,0.00,,,0.00,VWS V14.01,2013-12-30 00:26:00,
2013-12-29 18:30:00,18.8,10.0,30.28,NW,309,4.0,11.0,68,0.00,,,0.00,VWS V14.01,2013-12-30 00:30:00,
2013-12-29 18:31:00,18.7,9.6,30.28,SSE,147,0.0,5.0,67,0.00,,,0.00,VWS V14.01,2013-12-30 00:31:00,
2013-12-29 18:36:00,18.5,9.1,30.28,WNW,302,5.0,6.0,66,0.00,,,0.00,VWS V14.01,2013-12-30 00:36:00,
2013-12-29 18:41:00,18.3,8.9,30.29,WNW,297,4.0,9.0,66,0.00,,,0.00,VWS V14.01,2013-12-30 00:41:00,
2013-12-29 18:46:00,18.2,9.1,30.29,WNW,298,4.0,9.0,67,0.00,,,0.00,VWS V14.01,2013-12-30 00:46:00,
2013-12-29 18:51:00,18.1,9.0,30.29,NW,318,2.0,9.0,67,0.00,,,0.00,VWS V14.01,2013-12-30 00:51:00,
2013-12-29 18:56:00,18.0,8.9,30.29,West,281,8.0,9.0,67,0.00,,,0.00,VWS V14.01,2013-12-30 00:56:00,
2013-12-29 19:00:00,18.0,8.6,30.29,NW,323,4.0,10.0,66,0.00,,,0.00,VWS V14.01,2013-12-30 01:00:00,
2013-12-29 19:01:00,18.0,8.6,30.30,East,94,1.0,4.0,66,0.00,,,0.00,VWS V14.01,2013-12-30 01:01:00,
2013-12-29 19:06:00,17.9,8.8,30.30,West,280,5.0,6.0,67,0.00,,,0.00,VWS V14.01,2013-12-30 01:06:00,
2013-12-29 19:11:00,17.9,8.5,30.30,WNW,296,0.0,7.0,66,0.00,,,0.00,VWS V14.01,2013-12-30 01:11:00,
2013-12-29 19:16:00,17.9,8.5,30.30,West,276,1.0,7.0,66,0.00,,,0.00,VWS V14.01,2013-12-30 01:16:00,
2013-12-29 19:21:00,17.9,8.8,30.30,WNW,289,2.0,7.0,67,0.00,,,0.00,VWS V14.01,2013-12-30 01:21:00,
2013-12-29 19:26:00,17.9,8.8,30.30,WNW,286,1.0,7.0,67,0.00,,,0.00,VWS V14.01,2013-12-30 01:26:00,
2013-12-29 19:30:00,17.9,8.5,30.30,WNW,283,4.0,7.0,66,0.00,,,0.00,VWS V14.01,2013-12-30 01:30:00,
2013-12-29 19:31:00,17.9,8.5,30.30,SW,223,4.0,9.0,66,0.00,,,0.00,VWS V14.01,2013-12-30 01:31:00,
2013-12-29 19:36:00,17.9,8.5,30.30,West,266,2.0,9.0,66,0.00,,,0.00,VWS V14.01,2013-12-30 01:36:00,
2013-12-29 19:41:00,17.8,8.4,30.30,NNE,18,1.0,9.0,66,0.00,,,0.00,VWS V14.01,2013-12-30 01:41:00,
2013-12-29 19:46:00,17.7,8.3,30.31,NE,38,2.0,9.0,66,0.00,,,0.00,VWS V14.01,2013-12-30 01:46:00,
2013-12-29 19:51:00,17.7,7.9,30.31,WNW,297,2.0,9.0,65,0.00,,,0.00,VWS V14.01,2013-12-30 01:51:00,
2013-12-29 19:56:00,17.6,10.1,30.30,WNW,283,1.0,9.0,72,0.00,,,0.00,VWS V14.01,2013-12-30 01:56:00,
2013-12-29 20:00:00,17.6,7.8,30.30,WNW,283,0.0,9.0,65,0.00,,,0.00,VWS V14.01,2013-12-30 02:00:00,
2013-12-29 20:01:00,17.6,7.8,30.31,WNW,283,0.0,4.0,65,0.00,,,0.00,VWS V14.01,2013-12-30 02:01:00,
2013-12-29 20:06:00,17.5,7.8,30.31,WNW,283,0.0,4.0,65,0.00,,,0.00,VWS V14.01,2013-12-30 02:06:00,
2013-12-29 20:11:00,17.4,7.7,30.31,NW,309,0.0,4.0,65,0.00,,,0.00,VWS V14.01,2013-12-30 02:11:00,
2013-12-29 20:16:00,17.3,7.6,30.31,NW,309,0.0,4.0,65,0.00,,,0.00,VWS V14.01,2013-12-30 02:16:00,
2013-12-29 20:21:00,17.2,7.8,30.31,NW,309,0.0,4.0,66,0.00,,,0.00,VWS V14.01,2013-12-30 02:21:00,
2013-12-29 20:26:00,17.2,7.5,30.31,West,259,1.0,6.0,65,0.00,,,0.00,VWS V14.01,2013-12-30 02:26:00,
2013-12-29 20:30:00,17.1,7.4,30.31,WNW,303,0.0,6.0,65,0.00,,,0.00,VWS V14.01,2013-12-30 02:30:00,
2013-12-29 20:31:00,17.0,7.3,30.31,WNW,303,0.0,0.0,65,0.00,,,0.00,VWS V14.01,2013-12-30 02:31:00,
2013-12-29 20:36:00,16.9,7.2,30.31,WNW,303,0.0,0.0,65,0.00,,,0.00,VWS V14.01,2013-12-30 02:36:00,
2013-12-29 20:41:00,16.8,7.1,30.31,WNW,294,1.0,6.0,65,0.00,,,0.00,VWS V14.01,2013-12-30 02:41:00,
2013-12-29 20:46:00,16.7,6.7,30.31,WSW,258,0.0,6.0,64,0.00,,,0.00,VWS V14.01,2013-12-30 02:46:00,
2013-12-29 20:51:00,16.7,6.3,30.31,West,281,5.0,6.0,63,0.00,,,0.00,VWS V14.01,2013-12-30 02:51:00,
2013-12-29 20:56:00,16.6,5.9,30.31,WNW,300,0.0,7.0,62,0.00,,,0.00,VWS V14.01,2013-12-30 02:56:00,
2013-12-29 21:00:00,16.5,5.4,30.31,WNW,301,0.0,7.0,61,0.00,,,0.00,VWS V14.01,2013-12-30 03:00:00,
2013-12-29 21:01:00,16.4,5.3,30.31,WNW,301,0.0,2.0,61,0.00,,,0.00,VWS V14.01,2013-12-30 03:01:00,
2013-12-29 21:06:00,16.3,4.9,30.31,West,280,0.0,6.0,60,0.00,,,0.00,VWS V14.01,2013-12-30 03:06:00,
2013-12-29 21:11:00,16.3,4.5,30.31,West,275,4.0,6.0,59,0.00,,,0.00,VWS V14.01,2013-12-30 03:11:00,
2013-12-29 21:16:00,16.2,4.4,30.31,WNW,291,4.0,6.0,59,0.00,,,0.00,VWS V14.01,2013-12-30 03:16:00,
2013-12-29 21:21:00,16.1,4.3,30.32,WNW,291,6.0,6.0,59,0.00,,,0.00,VWS V14.01,2013-12-30 03:21:00,
2013-12-29 21:26:00,16.0,3.8,30.32,West,260,1.0,10.0,58,0.00,,,0.00,VWS V14.01,2013-12-30 03:26:00,
2013-12-29 21:30:00,15.9,3.8,30.32,SSW,199,3.0,10.0,58,0.00,,,0.00,VWS V14.01,2013-12-30 03:30:00,
2013-12-29 21:31:00,15.9,3.8,30.33,West,274,1.0,4.0,58,0.00,,,0.00,VWS V14.01,2013-12-30 03:31:00,
2013-12-29 21:36:00,15.8,3.7,30.32,West,274,0.0,4.0,58,0.00,,,0.00,VWS V14.01,2013-12-30 03:36:00,
2013-12-29 21:42:00,15.7,3.9,30.33,WNW,297,1.0,7.0,59,0.00,,,0.00,VWS V14.01,2013-12-30 03:42:00,
2013-12-29 21:47:00,15.5,3.7,30.32,WSW,251,0.0,7.0,59,0.00,,,0.00,VWS V14.01,2013-12-30 03:47:00,
2013-12-29 21:52:00,15.4,3.7,30.32,WSW,251,2.0,7.0,59,0.00,,,0.00,VWS V14.01,2013-12-30 03:52:00,
2013-12-29 21:57:00,15.3,3.5,30.32,WSW,252,0.0,7.0,59,0.00,,,0.00,VWS V14.01,2013-12-30 03:57:00,
2013-12-29 22:00:00,15.2,3.1,30.32,WSW,252,0.0,7.0,58,0.00,,,0.00,VWS V14.01,2013-12-30 04:00:00,
2013-12-29 22:02:00,15.2,3.1,30.32,WSW,257,1.0,2.0,58,0.00,,,0.00,VWS V14.01,2013-12-30 04:02:00,
2013-12-29 22:07:00,15.0,2.9,30.33,West,277,0.0,5.0,58,0.00,,,0.00,VWS V14.01,2013-12-30 04:07:00,
2013-12-29 22:12:00,14.9,2.4,30.33,West,277,0.0,5.0,57,0.00,,,0.00,VWS V14.01,2013-12-30 04:12:00,
2013-12-29 22:17:00,14.8,2.3,30.33,WNW,300,2.0,5.0,57,0.00,,,0.00,VWS V14.01,2013-12-30 04:17:00,
2013-12-29 22:22:00,14.7,2.2,30.33,WSW,254,2.0,5.0,57,0.00,,,0.00,VWS V14.01,2013-12-30 04:22:00,
2013-12-29 22:27:00,14.6,2.5,30.33,WNW,285,0.0,5.0,58,0.00,,,0.00,VWS V14.01,2013-12-30 04:27:00,
2013-12-29 22:30:00,14.5,2.1,30.33,WNW,284,4.0,5.0,57,0.00,,,0.00,VWS V14.01,2013-12-30 04:30:00,
2013-12-29 22:32:00,14.5,2.0,30.33,WNW,284,1.0,5.0,57,0.00,,,0.00,VWS V14.01,2013-12-30 04:32:00,
2013-12-29 22:37:00,14.3,1.5,30.33,WNW,290,2.0,5.0,56,0.00,,,0.00,VWS V14.01,2013-12-30 04:37:00,
2013-12-29 22:42:00,14.3,1.5,30.34,WNW,289,2.0,5.0,56,0.00,,,0.00,VWS V14.01,2013-12-30 04:42:00,
2013-12-29 22:47:00,14.1,0.9,30.34,WNW,296,2.0,8.0,55,0.00,,,0.00,VWS V14.01,2013-12-30 04:47:00,
2013-12-29 22:52:00,14.0,0.0,30.34,WNW,301,0.0,8.0,53,0.00,,,0.00,VWS V14.01,2013-12-30 04:52:00,
2013-12-29 22:57:00,13.9,-0.1,30.34,West,263,1.0,8.0,53,0.00,,,0.00,VWS V14.01,2013-12-30 04:57:00,
2013-12-29 23:00:00,13.8,-1.0,30.34,West,279,0.0,8.0,51,0.00,,,0.00,VWS V14.01,2013-12-30 05:00:00,
2013-12-29 23:02:00,13.8,-1.4,30.34,NW,308,0.0,6.0,50,0.00,,,0.00,VWS V14.01,2013-12-30 05:02:00,
2013-12-29 23:07:00,13.7,-1.5,30.34,NW,313,0.0,6.0,50,0.00,,,0.00,VWS V14.01,2013-12-30 05:07:00,
2013-12-29 23:12:00,13.5,-1.7,30.34,NNW,333,0.0,6.0,50,0.00,,,0.00,VWS V14.01,2013-12-30 05:12:00,
2013-12-29 23:17:00,13.5,-1.2,30.34,NNW,331,0.0,6.0,51,0.00,,,0.00,VWS V14.01,2013-12-30 05:17:00,
2013-12-29 23:22:00,13.4,-1.8,30.34,WNW,294,0.0,6.0,50,0.00,,,0.00,VWS V14.01,2013-12-30 05:22:00,
2013-12-29 23:27:00,13.2,-1.5,30.34,WNW,294,0.0,6.0,51,0.00,,,0.00,VWS V14.01,2013-12-30 05:27:00,
2013-12-29 23:30:00,13.2,-1.5,30.34,WNW,294,0.0,6.0,51,0.00,,,0.00,VWS V14.01,2013-12-30 05:30:00,
2013-12-29 23:32:00,13.1,-1.6,30.34,WNW,294,0.0,2.0,51,0.00,,,0.00,VWS V14.01,2013-12-30 05:32:00,
2013-12-29 23:37:00,13.1,-1.2,30.34,WNW,294,1.0,2.0,52,0.00,,,0.00,VWS V14.01,2013-12-30 05:37:00,
2013-12-29 23:42:00,13.0,-1.3,30.34,WNW,294,0.0,2.0,52,0.00,,,0.00,VWS V14.01,2013-12-30 05:42:00,
2013-12-29 23:47:00,12.9,-1.0,30.34,WNW,294,1.0,2.0,53,0.00,,,0.00,VWS V14.01,2013-12-30 05:47:00,
2013-12-29 23:52:00,12.8,-1.1,30.33,WNW,294,1.0,2.0,53,0.00,,,0.00,VWS V14.01,2013-12-30 05:52:00,
2013-12-29 23:57:00,12.7,-0.8,30.34,WNW,294,2.0,5.0,54,0.00,,,0.00,VWS V14.01,2013-12-30 05:57:00,